Terminal Aerodrome Forecast
Issued by NWS Austin/San Antonio, TX

Home | Current Version | Previous Version | Text Only | Print | Product List | Glossary On
Versions: 1 2 3 4 5 6 7 8 9 10 11 12 13 14 15 16 17 18 19 20 21 22 23 24 25 26 27 28
985
FTUS44 KEWX 071721
TAFAUS
TAF
KAUS 071721Z 0718/0824 07007KT 6SM BR OVC007
     FM071900 07005KT P6SM BKN025
     FM080300 36008KT P6SM OVC035
     FM080800 36015G25KT P6SM BKN025
     FM081200 36020G30KT P6SM OVC020=

USA.gov is the U.S. government's official web portal to all federal, state and local government web resources and services.